createdAt,value
2022-12-14T00:02:11.305Z,25.90
2022-12-14T00:04:39.679Z,27.30
2022-12-14T00:07:08.046Z,25.90
2022-12-14T00:09:36.787Z,24.20
2022-12-14T00:12:05.235Z,23.40
2022-12-14T00:14:33.863Z,23.30
2022-12-14T00:17:02.519Z,22.20
2022-12-14T00:19:30.864Z,25.00
2022-12-14T00:21:59.158Z,25.90
2022-12-14T00:24:27.571Z,25.50
2022-12-14T00:26:55.934Z,23.40
2022-12-14T00:29:24.199Z,25.20
2022-12-14T00:31:52.643Z,20.10
2022-12-14T00:34:21.021Z,23.30
2022-12-14T00:36:49.330Z,27.60
2022-12-14T00:39:17.731Z,23.90
2022-12-14T00:41:46.242Z,27.20
2022-12-14T00:44:14.674Z,26.70
2022-12-14T00:46:43.005Z,28.50
2022-12-14T00:49:11.825Z,22.10
2022-12-14T00:51:40.388Z,24.30
2022-12-14T00:54:08.791Z,26.50
2022-12-14T00:56:37.174Z,27.20
2022-12-14T00:59:05.546Z,24.60
2022-12-14T01:01:34.301Z,28.40
2022-12-14T01:04:18.328Z,24.70
2022-12-14T01:06:48.868Z,27.90
2022-12-14T01:09:18.596Z,32.20
2022-12-14T01:11:47.425Z,30.10
2022-12-14T01:14:18.240Z,24.60
2022-12-14T01:16:47.055Z,22.70
2022-12-14T01:19:16.278Z,27.60
2022-12-14T01:21:45.126Z,32.00
2022-12-14T01:24:13.600Z,28.60
2022-12-14T01:26:42.310Z,27.30
2022-12-14T01:29:11.830Z,31.40
2022-12-14T01:31:40.592Z,33.10
2022-12-14T01:34:10.063Z,32.20
2022-12-14T01:36:39.693Z,34.80
2022-12-14T01:39:15.977Z,33.40
2022-12-14T01:41:48.949Z,33.40
2022-12-14T01:44:17.235Z,22.80
2022-12-14T01:46:54.813Z,33.60
2022-12-14T01:49:34.719Z,35.60
2022-12-14T01:52:10.285Z,25.40
2022-12-14T01:54:44.627Z,30.60
2022-12-14T01:57:19.547Z,34.90
2022-12-14T01:59:48.908Z,25.60
2022-12-14T02:02:18.964Z,29.20
2022-12-14T02:04:56.016Z,33.40
2022-12-14T02:07:27.262Z,37.80
2022-12-14T02:10:00.317Z,28.70
2022-12-14T02:12:40.762Z,31.20
2022-12-14T02:15:09.615Z,35.40
2022-12-14T02:17:39.096Z,34.20
2022-12-14T02:20:07.909Z,38.50
2022-12-14T02:23:34.976Z,29.10
2022-12-14T02:26:52.633Z,23.60
2022-12-14T02:29:46.794Z,28.00
2022-12-14T02:32:42.880Z,31.60
2022-12-14T02:35:11.612Z,31.30
2022-12-14T02:38:06.147Z,27.00
2022-12-14T02:40:37.186Z,23.90
2022-12-14T02:43:22.718Z,27.90
2022-12-14T02:46:00.900Z,27.00
2022-12-14T02:48:56.241Z,26.20
2022-12-14T02:51:27.346Z,26.30
2022-12-14T02:54:04.360Z,26.30
2022-12-14T02:56:45.764Z,26.10
2022-12-14T02:59:16.495Z,28.80
2022-12-14T03:01:47.334Z,26.30
2022-12-14T03:04:17.182Z,24.30
2022-12-14T03:07:00.390Z,25.30
2022-12-14T03:09:31.953Z,23.30
2022-12-14T03:12:11.274Z,21.30
2022-12-14T03:14:48.983Z,25.70
2022-12-14T03:17:25.258Z,22.30
2022-12-14T03:20:00.105Z,21.90
2022-12-14T03:22:40.789Z,17.90
2022-12-14T03:25:19.254Z,24.10
2022-12-14T03:27:58.219Z,23.30
2022-12-14T03:30:58.326Z,19.10
2022-12-14T03:33:20.798Z,23.60
2022-12-14T03:36:14.010Z,22.70
2022-12-14T03:38:51.398Z,24.80
2022-12-14T03:41:35.807Z,22.70
2022-12-14T03:44:25.798Z,23.90
2022-12-14T03:47:16.002Z,21.50
2022-12-14T03:50:04.885Z,23.20
2022-12-14T03:52:38.107Z,23.10
2022-12-14T03:55:22.071Z,17.00
2022-12-14T03:58:18.887Z,22.10
2022-12-14T04:01:15.929Z,25.00
2022-12-14T04:03:57.952Z,18.50
2022-12-14T04:06:34.573Z,17.90
2022-12-14T04:09:28.249Z,23.90
2022-12-14T04:12:34.231Z,23.50
2022-12-14T04:15:30.660Z,22.20
2022-12-14T04:18:24.308Z,24.10
2022-12-14T04:20:59.583Z,17.80
2022-12-14T04:23:59.931Z,24.50
2022-12-14T04:26:35.154Z,25.20
2022-12-14T04:29:28.692Z,24.80
2022-12-14T04:32:06.141Z,25.30
2022-12-14T04:34:38.104Z,24.40
2022-12-14T04:37:12.479Z,23.50
2022-12-14T04:40:07.113Z,23.50
2022-12-14T04:42:44.485Z,21.00
2022-12-14T04:45:20.344Z,22.80
2022-12-14T04:48:00.192Z,20.50
2022-12-14T04:50:38.894Z,19.60
2022-12-14T04:53:16.738Z,21.00
2022-12-14T04:55:53.582Z,16.20
2022-12-14T04:58:28.210Z,19.60
2022-12-14T05:01:14.937Z,23.00
2022-12-14T05:03:55.832Z,21.10
2022-12-14T05:06:33.382Z,21.20
2022-12-14T05:09:30.038Z,21.60
2022-12-14T05:12:05.557Z,24.30
2022-12-14T05:14:46.621Z,24.30
2022-12-14T05:17:16.031Z,22.80
2022-12-14T05:19:51.709Z,21.10
2022-12-14T05:22:21.819Z,23.00
2022-12-14T05:24:50.326Z,17.60
2022-12-14T05:27:18.709Z,23.00
2022-12-14T05:29:47.076Z,24.20
2022-12-14T05:32:15.464Z,22.50
2022-12-14T05:34:43.833Z,22.40
2022-12-14T05:37:17.979Z,22.30
2022-12-14T05:39:46.820Z,19.50
2022-12-14T05:42:15.402Z,23.40
2022-12-14T05:44:43.785Z,23.80
2022-12-14T05:47:12.157Z,23.80
2022-12-14T05:49:40.950Z,23.60
2022-12-14T05:52:09.434Z,23.30
2022-12-14T05:54:37.811Z,26.10
2022-12-14T05:57:07.485Z,24.80
2022-12-14T05:59:37.887Z,25.80
2022-12-14T06:02:06.432Z,23.10
2022-12-14T06:04:35.298Z,24.20
2022-12-14T06:07:04.570Z,24.10
2022-12-14T06:09:32.870Z,26.10
2022-12-14T06:12:01.161Z,24.70
2022-12-14T06:14:29.557Z,23.70
2022-12-14T06:16:58.072Z,24.10
2022-12-14T06:19:26.833Z,24.30
2022-12-14T06:21:55.827Z,25.20
2022-12-14T06:24:24.188Z,21.90
2022-12-14T06:26:52.521Z,25.90
2022-12-14T06:29:21.430Z,21.40
2022-12-14T06:31:50.446Z,26.20
2022-12-14T06:34:21.274Z,24.10
2022-12-14T06:36:53.351Z,25.60
2022-12-14T06:39:21.676Z,22.50
2022-12-14T06:41:53.713Z,22.40
2022-12-14T06:44:22.251Z,24.80
2022-12-14T06:46:50.793Z,23.60
2022-12-14T06:49:19.108Z,22.90
2022-12-14T06:51:47.768Z,25.30
2022-12-14T06:54:18.087Z,24.00
2022-12-14T06:56:47.813Z,21.80
2022-12-14T06:59:17.342Z,19.80
2022-12-14T07:01:49.795Z,19.90
2022-12-14T07:04:21.619Z,25.10
2022-12-14T07:06:50.606Z,25.00
2022-12-14T07:09:19.405Z,27.50
2022-12-14T07:11:51.492Z,28.00
2022-12-14T07:14:19.914Z,28.40
2022-12-14T07:16:49.073Z,22.60
2022-12-14T07:19:18.618Z,25.90
2022-12-14T07:21:50.511Z,26.30
2022-12-14T07:24:24.425Z,24.90
2022-12-14T07:26:54.005Z,25.60
2022-12-14T07:29:22.962Z,24.10
2022-12-14T07:31:51.748Z,24.40
2022-12-14T07:34:20.433Z,22.20
2022-12-14T07:36:53.797Z,26.00
2022-12-14T07:39:22.921Z,27.70
2022-12-14T07:41:51.311Z,27.60
2022-12-14T07:44:19.796Z,27.20
2022-12-14T07:46:48.265Z,28.60
2022-12-14T07:49:16.646Z,30.30
2022-12-14T07:51:46.261Z,29.50
2022-12-14T07:54:14.717Z,29.70
2022-12-14T07:56:44.286Z,33.00
2022-12-14T07:59:18.096Z,29.10
2022-12-14T08:01:46.664Z,31.30
2022-12-14T08:04:20.322Z,29.70
2022-12-14T08:06:49.689Z,28.70
2022-12-14T08:09:18.348Z,30.40
2022-12-14T08:11:47.177Z,28.50
2022-12-14T08:14:18.083Z,28.30
2022-12-14T08:16:48.199Z,31.60
2022-12-14T08:19:18.130Z,30.30
2022-12-14T08:21:46.833Z,29.50
2022-12-14T08:24:17.206Z,30.30
2022-12-14T08:26:49.178Z,30.60
2022-12-14T08:29:18.732Z,28.40
2022-12-14T08:31:47.391Z,27.10
2022-12-14T08:34:23.008Z,27.10
2022-12-14T08:36:51.371Z,25.10
2022-12-14T08:39:19.865Z,25.20
2022-12-14T08:41:48.250Z,22.30
2022-12-14T08:44:19.486Z,24.10
2022-12-14T08:46:48.145Z,26.40
2022-12-14T08:49:16.564Z,23.80
2022-12-14T08:51:45.014Z,26.00
2022-12-14T08:54:13.340Z,25.60
2022-12-14T08:56:41.802Z,26.20
2022-12-14T08:59:24.502Z,22.80
2022-12-14T09:01:59.155Z,23.60
2022-12-14T09:04:27.936Z,26.40
2022-12-14T09:06:56.733Z,20.60
2022-12-14T09:09:25.254Z,24.40
2022-12-14T09:11:54.195Z,18.70
2022-12-14T09:14:22.630Z,20.50
2022-12-14T09:16:51.006Z,25.30
2022-12-14T09:19:20.296Z,23.20
2022-12-14T09:21:48.644Z,22.70
2022-12-14T09:24:17.155Z,21.40
2022-12-14T09:26:46.947Z,27.80
2022-12-14T09:29:17.603Z,21.40
2022-12-14T09:31:46.171Z,24.80
2022-12-14T09:34:14.722Z,23.60
2022-12-14T09:36:43.121Z,23.50
2022-12-14T09:39:15.361Z,26.30
2022-12-14T09:41:57.704Z,23.60
2022-12-14T09:44:32.922Z,26.40
2022-12-14T09:47:11.515Z,17.10
2022-12-14T09:50:01.521Z,25.20
2022-12-14T09:52:49.092Z,26.10
2022-12-14T09:56:22.945Z,26.70
2022-12-14T09:58:57.921Z,23.30
2022-12-14T10:02:33.406Z,24.30
2022-12-14T10:05:40.894Z,27.10
2022-12-14T10:08:32.818Z,19.30
2022-12-14T10:11:01.425Z,26.60
2022-12-14T10:13:35.909Z,25.60
2022-12-14T10:16:32.261Z,29.60
2022-12-14T10:19:25.339Z,17.70
2022-12-14T10:22:00.831Z,25.70
2022-12-14T10:24:36.595Z,25.10
2022-12-14T10:27:10.091Z,17.60
2022-12-14T10:29:46.978Z,12.90
2022-12-14T10:32:29.839Z,26.80
2022-12-14T10:34:59.840Z,27.00
2022-12-14T10:37:39.173Z,26.10
2022-12-14T10:40:16.420Z,25.50
2022-12-14T10:43:09.147Z,21.60
2022-12-14T10:46:10.041Z,28.80
2022-12-14T10:49:11.065Z,27.60
2022-12-14T10:51:43.749Z,29.60
2022-12-14T10:54:14.985Z,29.60
2022-12-14T10:56:49.876Z,24.50
2022-12-14T10:59:18.881Z,29.00
2022-12-14T11:01:50.165Z,19.20
2022-12-14T11:05:00.419Z,27.20
2022-12-14T11:07:34.630Z,22.80
2022-12-14T11:10:22.626Z,21.70
2022-12-14T11:13:13.929Z,21.10
2022-12-14T11:15:48.255Z,22.80
2022-12-14T11:18:16.684Z,32.90
2022-12-14T11:20:52.676Z,30.60
2022-12-14T11:23:36.243Z,28.40
2022-12-14T11:26:09.624Z,26.30
2022-12-14T11:28:50.704Z,28.80
2022-12-14T11:31:39.488Z,29.80
2022-12-14T11:34:28.549Z,27.40
2022-12-14T11:37:10.882Z,23.00
2022-12-14T11:39:42.809Z,24.80
2022-12-14T11:42:19.244Z,31.20
2022-12-14T11:44:50.012Z,28.70
2022-12-14T11:47:21.296Z,30.90
2022-12-14T11:49:54.856Z,31.20
2022-12-14T11:52:25.834Z,28.50
2022-12-14T11:54:57.206Z,23.50
2022-12-14T11:57:32.583Z,25.70
2022-12-14T12:00:06.005Z,27.10
2022-12-14T12:02:48.047Z,27.20
2022-12-14T12:05:21.019Z,26.70
2022-12-14T12:07:49.414Z,28.00
2022-12-14T12:10:34.834Z,26.10
2022-12-14T12:13:06.604Z,21.60
2022-12-14T12:15:41.590Z,25.30
2022-12-14T12:18:26.176Z,27.60
2022-12-14T12:21:10.497Z,26.40
2022-12-14T12:24:13.374Z,28.60
2022-12-14T12:26:56.273Z,25.40
2022-12-14T12:29:40.927Z,28.20
2022-12-14T12:32:31.398Z,21.90
2022-12-14T12:35:12.505Z,29.90
2022-12-14T12:37:46.572Z,20.80
2022-12-14T12:43:24.386Z,23.70
2022-12-14T12:46:05.945Z,24.80
2022-12-14T12:48:49.363Z,28.30
2022-12-14T12:51:25.489Z,27.90
2022-12-14T12:54:06.701Z,26.30
2022-12-14T12:56:38.039Z,27.20
2022-12-14T12:59:08.158Z,24.50
2022-12-14T13:01:41.678Z,22.20
2022-12-14T13:04:23.687Z,30.70
2022-12-14T13:06:57.487Z,27.90
2022-12-14T13:11:58.381Z,28.20
2022-12-14T13:14:39.269Z,30.30
2022-12-14T13:17:40.900Z,29.00
2022-12-14T13:20:32.309Z,26.30
2022-12-14T13:23:28.334Z,26.60
2022-12-14T13:26:48.549Z,29.50
2022-12-14T13:29:32.234Z,27.10
2022-12-14T13:32:24.796Z,27.50
2022-12-14T13:35:35.308Z,28.30
2022-12-14T13:38:22.810Z,28.60
2022-12-14T13:41:15.285Z,29.10
2022-12-14T13:43:57.256Z,28.40
2022-12-14T13:46:29.572Z,29.20
2022-12-14T13:49:03.287Z,27.90
2022-12-14T13:51:34.586Z,26.60
2022-12-14T13:54:06.740Z,31.70
2022-12-14T13:56:39.164Z,27.10
2022-12-14T13:59:27.923Z,26.10
2022-12-14T14:01:59.155Z,30.10
2022-12-14T14:04:32.461Z,28.50
2022-12-14T14:07:26.222Z,28.90
2022-12-14T14:10:06.734Z,28.90
2022-12-14T14:12:41.072Z,25.50
2022-12-14T14:15:09.699Z,28.90
2022-12-14T14:17:46.354Z,27.80
2022-12-14T14:20:41.166Z,25.10
2022-12-14T14:23:16.213Z,31.50
2022-12-14T14:26:10.457Z,26.20
2022-12-14T14:31:07.935Z,26.50
2022-12-14T14:33:55.108Z,28.60
2022-12-14T14:36:26.812Z,28.00
2022-12-14T14:38:56.468Z,28.00
2022-12-14T14:41:33.314Z,26.30
2022-12-14T14:44:05.115Z,31.20
2022-12-14T14:46:39.699Z,30.60
2022-12-14T14:49:25.678Z,27.70
2022-12-14T14:51:54.437Z,28.40
2022-12-14T14:55:10.606Z,27.60
2022-12-14T14:57:54.622Z,25.70
2022-12-14T15:00:23.444Z,25.40
2022-12-14T15:02:54.431Z,23.10
2022-12-14T15:05:43.345Z,27.20
2022-12-14T15:08:33.399Z,27.80
2022-12-14T15:11:12.313Z,29.00
2022-12-14T15:13:48.540Z,29.30
2022-12-14T15:16:28.552Z,27.80
2022-12-14T15:19:25.296Z,29.90
2022-12-14T15:21:59.874Z,28.40
2022-12-14T15:24:38.260Z,25.80
2022-12-14T15:27:20.287Z,28.20
2022-12-14T15:29:49.639Z,25.00
2022-12-14T15:32:21.695Z,25.60
2022-12-14T15:35:00.125Z,27.90
2022-12-14T15:38:04.830Z,28.30
2022-12-14T15:40:34.974Z,27.20
2022-12-14T15:43:17.285Z,28.90
2022-12-14T15:45:49.980Z,30.10
2022-12-14T15:48:27.990Z,29.60
2022-12-14T15:51:01.131Z,29.70
2022-12-14T15:53:37.074Z,29.10
2022-12-14T15:56:23.523Z,28.20
2022-12-14T15:58:53.659Z,29.60
2022-12-14T16:01:23.673Z,25.90
2022-12-14T16:03:55.973Z,29.80
2022-12-14T16:06:27.979Z,26.20
2022-12-14T16:09:32.677Z,26.90
2022-12-14T16:12:17.042Z,24.50
2022-12-14T16:14:57.501Z,23.00
2022-12-14T16:17:36.031Z,28.80
2022-12-14T16:20:26.499Z,27.20
2022-12-14T16:23:13.528Z,29.80
2022-12-14T16:26:00.740Z,30.30
2022-12-14T16:28:37.961Z,26.80
2022-12-14T16:31:08.692Z,26.50
2022-12-14T16:33:39.250Z,27.70
2022-12-14T16:36:09.793Z,23.00
2022-12-14T16:39:01.235Z,26.50
2022-12-14T16:41:51.823Z,30.80
2022-12-14T16:44:23.283Z,29.70
2022-12-14T16:47:01.784Z,26.00
2022-12-14T16:49:40.040Z,27.90
2022-12-14T16:52:16.960Z,30.20
2022-12-14T16:55:13.765Z,29.30
2022-12-14T16:57:49.188Z,26.90
2022-12-14T17:00:25.396Z,29.20
2022-12-14T17:02:59.433Z,28.60
2022-12-14T17:05:36.315Z,25.40
2022-12-14T17:08:07.722Z,27.90
2022-12-14T17:10:37.819Z,28.80
2022-12-14T17:13:06.996Z,24.20
2022-12-14T17:15:49.527Z,30.50
2022-12-14T17:18:19.627Z,31.30
2022-12-14T17:20:49.649Z,26.90
2022-12-14T17:23:20.594Z,30.30
2022-12-14T17:25:49.244Z,28.40
2022-12-14T17:28:29.335Z,29.70
2022-12-14T17:31:02.889Z,32.60
2022-12-14T17:33:33.058Z,30.10
2022-12-14T17:36:02.215Z,32.60
2022-12-14T17:38:32.274Z,31.90
2022-12-14T17:41:00.957Z,33.60
2022-12-14T17:43:31.504Z,32.20
2022-12-14T17:46:05.925Z,32.20
2022-12-14T17:48:36.917Z,32.90
2022-12-14T17:51:07.286Z,31.50
2022-12-14T17:53:37.289Z,33.80
2022-12-14T17:56:07.278Z,33.90
2022-12-14T17:58:36.891Z,35.40
2022-12-14T18:01:08.467Z,36.10
2022-12-14T18:03:38.261Z,31.90
2022-12-14T18:06:15.954Z,37.90
2022-12-14T18:08:46.245Z,39.00
2022-12-14T18:11:20.394Z,36.80
2022-12-14T18:13:51.526Z,33.10
2022-12-14T18:16:24.049Z,30.20
2022-12-14T18:18:55.519Z,36.50
2022-12-14T18:21:31.146Z,34.60
2022-12-14T18:24:01.740Z,34.00
2022-12-14T18:26:31.451Z,34.60
2022-12-14T18:29:02.706Z,38.50
2022-12-14T18:31:41.861Z,40.00
2022-12-14T18:34:23.024Z,38.10
2022-12-14T18:36:53.324Z,37.60
2022-12-14T18:39:24.479Z,37.40
2022-12-14T18:41:54.530Z,35.50
2022-12-14T18:44:24.419Z,36.50
2022-12-14T18:46:59.778Z,36.60
2022-12-14T18:49:37.774Z,35.50
2022-12-14T18:52:08.351Z,32.70
2022-12-14T18:54:39.115Z,34.40
2022-12-14T18:57:10.896Z,36.10
2022-12-14T18:59:44.694Z,35.70
2022-12-14T19:02:16.615Z,33.60
2022-12-14T19:04:50.948Z,34.90
2022-12-14T19:07:22.633Z,30.90
2022-12-14T19:09:55.039Z,41.30
2022-12-14T19:12:27.036Z,33.10
2022-12-14T19:14:57.999Z,33.70
2022-12-14T19:17:28.054Z,30.10
2022-12-14T19:19:58.575Z,35.80
2022-12-14T19:22:31.576Z,33.90
2022-12-14T19:25:03.146Z,31.80
2022-12-14T19:28:11.403Z,32.50
2022-12-14T19:30:25.969Z,37.80
2022-12-14T19:32:59.717Z,35.00
2022-12-14T19:35:33.413Z,34.80
2022-12-14T19:40:33.860Z,31.80
2022-12-14T19:43:09.437Z,34.40
2022-12-14T19:45:41.943Z,29.60
2022-12-14T19:48:21.947Z,34.50
2022-12-14T19:50:53.673Z,27.20
2022-12-14T19:53:29.728Z,31.10
2022-12-14T19:56:01.738Z,30.50
2022-12-14T19:58:33.735Z,29.70
2022-12-14T20:01:13.686Z,28.20
2022-12-14T20:03:45.326Z,33.60
2022-12-14T20:06:17.781Z,32.70
2022-12-14T20:08:50.305Z,29.40
2022-12-14T20:11:21.635Z,34.30
2022-12-14T20:13:58.118Z,33.10
2022-12-14T20:16:34.505Z,35.10
2022-12-14T20:19:05.252Z,32.20
2022-12-14T20:21:36.600Z,31.50
2022-12-14T20:24:15.026Z,34.70
2022-12-14T20:31:51.882Z,30.20
2022-12-14T20:34:27.999Z,33.00
2022-12-14T20:36:59.397Z,32.10
2022-12-14T20:39:31.543Z,31.50
2022-12-14T20:42:02.173Z,30.60
2022-12-14T20:44:32.244Z,33.00
2022-12-14T20:47:03.398Z,34.00
2022-12-14T20:49:35.357Z,30.00
2022-12-14T20:52:06.134Z,33.00
2022-12-14T20:54:38.152Z,41.10
2022-12-14T20:57:09.893Z,34.70
2022-12-14T20:59:41.860Z,34.90
2022-12-14T21:02:23.185Z,34.10
2022-12-14T21:04:54.090Z,31.50
2022-12-14T21:07:26.077Z,35.80
2022-12-14T21:09:56.164Z,31.00
2022-12-14T21:12:27.427Z,28.60
2022-12-14T21:14:57.293Z,29.80
2022-12-14T21:17:32.687Z,32.70
2022-12-14T21:20:01.995Z,29.00
2022-12-14T21:22:32.683Z,31.60
2022-12-14T21:25:05.793Z,29.60
2022-12-14T21:27:40.397Z,30.10
2022-12-14T21:30:12.098Z,33.40
2022-12-14T21:32:42.178Z,31.70
2022-12-14T21:35:12.556Z,36.50
2022-12-14T21:37:41.204Z,34.50
2022-12-14T21:40:29.842Z,36.20
2022-12-14T21:42:59.354Z,30.10
2022-12-14T21:45:28.103Z,37.40
2022-12-14T21:47:56.865Z,29.50
2022-12-14T21:50:25.370Z,35.40
2022-12-14T21:52:54.181Z,33.30
2022-12-14T21:55:22.932Z,30.70
2022-12-14T21:58:10.469Z,33.40
2022-12-14T22:00:38.972Z,35.60
2022-12-14T22:03:07.603Z,34.50
2022-12-14T22:05:39.934Z,31.40
2022-12-14T22:08:08.261Z,30.00
2022-12-14T22:10:36.668Z,33.50
2022-12-14T22:13:04.984Z,32.50
2022-12-14T22:15:33.363Z,33.50
2022-12-14T22:18:01.946Z,33.60
2022-12-14T22:20:30.987Z,36.10
2022-12-14T22:23:00.360Z,34.40
2022-12-14T22:25:28.743Z,36.40
2022-12-14T22:27:57.143Z,34.40
2022-12-14T22:30:31.586Z,35.90
2022-12-14T22:33:00.586Z,35.60
2022-12-14T22:35:29.084Z,34.90
2022-12-14T22:37:57.427Z,35.60
2022-12-14T22:40:26.154Z,33.30
2022-12-14T22:42:54.738Z,33.40
2022-12-14T22:45:23.049Z,36.40
2022-12-14T22:47:51.459Z,38.50
2022-12-14T22:50:21.018Z,37.10
2022-12-14T22:52:49.750Z,34.80
2022-12-14T22:55:18.535Z,33.60
2022-12-14T22:57:48.484Z,34.10
2022-12-14T23:00:17.519Z,35.70
2022-12-14T23:02:48.672Z,42.90
2022-12-14T23:05:18.127Z,43.00
2022-12-14T23:07:46.512Z,45.80
2022-12-14T23:10:33.624Z,42.10
2022-12-14T23:13:20.537Z,42.10
2022-12-14T23:16:07.742Z,38.50
2022-12-14T23:18:55.063Z,39.10
2022-12-14T23:21:42.212Z,39.10
2022-12-14T23:24:29.459Z,38.10
2022-12-14T23:27:16.615Z,37.20
2022-12-14T23:30:03.640Z,40.60
2022-12-14T23:32:50.903Z,41.60
2022-12-14T23:35:37.993Z,39.20
2022-12-14T23:38:26.947Z,38.70
2022-12-14T23:41:18.566Z,37.90
2022-12-14T23:44:05.743Z,37.70
2022-12-14T23:46:52.821Z,37.80
2022-12-14T23:49:40.251Z,39.00
2022-12-14T23:52:27.241Z,43.70
2022-12-14T23:55:14.592Z,39.90
2022-12-14T23:58:01.677Z,38.00
